Time;durP1;ratioP1;P1;durP2;ratioP2;P2;SDS_P1;SDS_P2;PMS_P1;PMS_P2;Temp;Humidity;BMP_temperature;BMP_pressure;BME280_temperature;BME280_humidity;BME280_pressure;Samples;Min_cycle;Max_cycle;Signal;HPM_P1;HPM_P2
2022/08/28 00:00:45;;;;;;;21.83;20.03;;;19.50;99.90;;;;;;6132910;23;20979;-70
2022/08/28 00:03:14;;;;;;;20.67;19.07;;;19.50;99.90;;;;;;6124633;23;20505;-70
2022/08/28 00:05:42;;;;;;;17.93;16.53;;;19.50;99.90;;;;;;6136095;23;20465;-70
2022/08/28 00:08:11;;;;;;;18.37;16.90;;;19.50;99.90;;;;;;6144113;23;20821;-70
2022/08/28 00:10:39;;;;;;;21.67;19.87;;;19.40;99.90;;;;;;6142558;23;20472;-71
2022/08/28 00:13:07;;;;;;;22.30;20.53;;;19.40;99.90;;;;;;6147704;23;20449;-71
2022/08/28 00:15:37;;;;;;;22.83;20.80;;;19.30;99.90;;;;;;6131994;23;20452;-71
2022/08/28 00:18:05;;;;;;;24.20;22.10;;;19.30;99.90;;;;;;6139120;23;20517;-70
2022/08/28 00:20:36;;;;;;;25.70;23.50;;;19.30;99.90;;;;;;6133667;23;20493;-71
2022/08/28 00:23:04;;;;;;;23.60;21.60;;;19.30;99.90;;;;;;6147932;23;20479;-70
2022/08/28 00:25:33;;;;;;;23.23;21.30;;;19.20;99.90;;;;;;6147751;23;20440;-69
2022/08/28 00:28:02;;;;;;;24.53;22.43;;;19.20;99.90;;;;;;6137229;23;20799;-69
2022/08/28 00:30:31;;;;;;;23.87;21.67;;;19.30;99.90;;;;;;6137207;23;20532;-69
2022/08/28 00:33:02;;;;;;;23.10;21.30;;;19.30;99.90;;;;;;6136005;23;20474;-71
2022/08/28 00:35:30;;;;;;;22.83;20.93;;;19.30;99.90;;;;;;6147804;23;20547;-71
2022/08/28 00:37:59;;;;;;;22.30;20.57;;;19.30;99.90;;;;;;6142900;23;20455;-71
2022/08/28 00:40:28;;;;;;;21.43;19.73;;;19.40;99.90;;;;;;6137855;23;20555;-71
2022/08/28 00:42:56;;;;;;;22.30;20.40;;;19.40;99.90;;;;;;6138236;23;20545;-71
2022/08/28 00:45:25;;;;;;;22.23;20.33;;;19.40;99.90;;;;;;6138014;23;20440;-71
2022/08/28 00:47:53;;;;;;;21.70;19.90;;;19.50;99.90;;;;;;6142942;23;20460;-70
2022/08/28 00:50:23;;;;;;;21.03;19.23;;;19.50;99.90;;;;;;6148784;23;20468;-71
2022/08/28 00:52:55;;;;;;;21.10;19.27;;;19.60;99.90;;;;;;6147695;23;20449;-70
2022/08/28 00:55:26;;;;;;;20.97;19.07;;;19.60;99.90;;;;;;6144801;23;20445;-70
2022/08/28 00:57:57;;;;;;;21.10;19.40;;;19.60;99.90;;;;;;6148210;23;20467;-70
2022/08/28 01:00:28;;;;;;;22.23;20.43;;;19.60;99.90;;;;;;6144646;23;20480;-70
2022/08/28 01:02:55;;;;;;;22.63;20.63;;;19.60;99.90;;;;;;6129998;23;20441;-70
2022/08/28 01:05:22;;;;;;;20.77;19.00;;;19.60;99.90;;;;;;6128646;23;20437;-70
2022/08/28 01:07:50;;;;;;;20.90;19.27;;;19.60;99.90;;;;;;6138440;23;20511;-70
2022/08/28 01:10:21;;;;;;;21.33;19.53;;;19.60;99.90;;;;;;6134649;23;20471;-70
2022/08/28 01:12:51;;;;;;;20.90;19.30;;;19.60;99.90;;;;;;6145315;23;20799;-70
2022/08/28 01:15:22;;;;;;;21.13;19.33;;;19.60;99.90;;;;;;6139208;23;20436;-70
2022/08/28 01:17:55;;;;;;;20.90;19.20;;;19.60;99.90;;;;;;6125787;23;20505;-70
2022/08/28 01:20:26;;;;;;;21.10;19.40;;;19.60;99.90;;;;;;6123111;23;20508;-70
2022/08/28 01:23:03;;;;;;;22.40;20.50;;;19.60;99.90;;;;;;6127565;23;20443;-70
2022/08/28 01:25:35;;;;;;;19.97;18.33;;;19.50;99.90;;;;;;6127478;23;20437;-71
2022/08/28 01:28:05;;;;;;;21.30;19.60;;;19.50;99.90;;;;;;6128132;23;20460;-70
2022/08/28 01:30:32;;;;;;;19.87;18.27;;;19.50;99.90;;;;;;6141002;23;20519;-70
2022/08/28 01:33:00;;;;;;;21.33;19.53;;;19.50;99.90;;;;;;6120848;23;20446;-70
2022/08/28 01:35:31;;;;;;;22.47;20.50;;;19.50;99.90;;;;;;6146278;23;20437;-70
2022/08/28 01:37:59;;;;;;;21.33;19.53;;;19.40;99.90;;;;;;6134595;23;21050;-70
2022/08/28 01:40:29;;;;;;;20.73;19.03;;;19.50;99.90;;;;;;6123232;23;20501;-70
2022/08/28 01:43:07;;;;;;;22.53;20.63;;;19.40;99.90;;;;;;6131797;23;20448;-70
2022/08/28 01:45:36;;;;;;;22.77;20.67;;;19.40;99.90;;;;;;6146332;23;20557;-70
2022/08/28 01:48:05;;;;;;;23.50;21.53;;;19.40;99.90;;;;;;6145854;23;20826;-70
2022/08/28 01:50:33;;;;;;;23.33;21.23;;;19.40;99.90;;;;;;6133270;23;20445;-70
2022/08/28 01:53:01;;;;;;;22.67;20.77;;;19.40;99.90;;;;;;6135848;23;20477;-70
2022/08/28 01:55:28;;;;;;;23.93;21.90;;;19.30;99.90;;;;;;6140255;23;20445;-70
2022/08/28 01:57:57;;;;;;;25.33;23.03;;;19.30;99.90;;;;;;6126970;23;21187;-71
2022/08/28 02:00:26;;;;;;;26.00;23.73;;;19.30;99.90;;;;;;6123902;23;20555;-70
2022/08/28 02:02:55;;;;;;;27.57;24.93;;;19.20;99.90;;;;;;6121898;23;20437;-70
2022/08/28 02:05:23;;;;;;;28.13;25.60;;;19.20;99.90;;;;;;6122155;23;20484;-70
2022/08/28 02:07:51;;;;;;;26.93;24.57;;;19.20;99.90;;;;;;6116829;23;20507;-70
2022/08/28 02:10:23;;;;;;;28.60;25.93;;;19.20;99.90;;;;;;6134947;23;20519;-70
2022/08/28 02:12:50;;;;;;;26.50;24.10;;;19.20;99.90;;;;;;6144607;23;20998;-70
2022/08/28 02:15:19;;;;;;;29.07;26.37;;;19.20;99.90;;;;;;6132157;23;20491;-70
2022/08/28 02:17:46;;;;;;;28.50;25.67;;;19.30;99.90;;;;;;6127159;23;21025;-70
2022/08/28 02:20:14;;;;;;;26.70;24.30;;;19.20;99.90;;;;;;6141349;23;20507;-70
2022/08/28 02:22:41;;;;;;;27.27;24.83;;;19.20;99.90;;;;;;6131251;23;20520;-70
2022/08/28 02:25:10;;;;;;;27.23;24.77;;;19.20;99.90;;;;;;6132185;23;20472;-70
2022/08/28 02:27:37;;;;;;;24.90;22.70;;;19.40;99.90;;;;;;6139814;23;20479;-70
2022/08/28 02:30:07;;;;;;;26.53;24.33;;;19.20;99.90;;;;;;6139774;23;20988;-70
2022/08/28 02:32:36;;;;;;;25.00;22.80;;;19.20;99.90;;;;;;6134167;23;21002;-70
2022/08/28 02:35:04;;;;;;;25.93;23.63;;;19.20;99.90;;;;;;6118992;23;20445;-70
2022/08/28 02:37:31;;;;;;;27.77;25.27;;;19.20;99.90;;;;;;6139380;23;20479;-70
2022/08/28 02:39:58;;;;;;;26.20;23.90;;;19.30;99.90;;;;;;6123286;23;20469;-70
2022/08/28 02:42:25;;;;;;;27.07;24.57;;;19.30;99.90;;;;;;6131920;23;20453;-71
2022/08/28 02:44:53;;;;;;;28.57;25.97;;;19.30;99.90;;;;;;6136935;23;20878;-70
2022/08/28 02:47:20;;;;;;;28.27;25.77;;;19.30;99.90;;;;;;6126878;23;21033;-70
2022/08/28 02:49:48;;;;;;;26.67;24.37;;;19.30;99.90;;;;;;6120615;23;20872;-70
2022/08/28 02:52:15;;;;;;;26.77;24.30;;;19.30;99.90;;;;;;6138039;23;20475;-70
2022/08/28 02:54:42;;;;;;;29.23;26.53;;;19.30;99.90;;;;;;6134223;23;20448;-70
2022/08/28 02:57:09;;;;;;;27.37;24.97;;;19.30;99.90;;;;;;6136911;23;20563;-69
2022/08/28 02:59:37;;;;;;;29.73;27.07;;;19.30;99.90;;;;;;6129318;23;20544;-70
2022/08/28 03:02:05;;;;;;;27.90;25.40;;;19.30;99.90;;;;;;6146026;23;20442;-70
2022/08/28 03:04:33;;;;;;;27.87;25.47;;;19.30;99.90;;;;;;6139287;23;21075;-70
2022/08/28 03:07:01;;;;;;;25.83;23.53;;;19.40;99.90;;;;;;6119992;23;20516;-70
2022/08/28 03:09:28;;;;;;;28.17;25.67;;;19.30;99.90;;;;;;6120878;23;20459;-70
2022/08/28 03:11:56;;;;;;;27.57;25.27;;;19.30;99.90;;;;;;6132079;23;20471;-70
2022/08/28 03:14:25;;;;;;;28.83;26.23;;;19.40;99.90;;;;;;6138121;23;20909;-70
2022/08/28 03:16:52;;;;;;;27.37;24.87;;;19.40;99.90;;;;;;6122885;23;20452;-70
2022/08/28 03:19:19;;;;;;;26.77;24.47;;;19.40;99.90;;;;;;6132743;23;20440;-71
2022/08/28 03:21:46;;;;;;;26.07;23.77;;;19.40;99.90;;;;;;6149373;23;20488;-70
2022/08/28 03:24:14;;;;;;;26.90;24.70;;;19.40;99.90;;;;;;6128087;23;20488;-71
2022/08/28 03:26:41;;;;;;;26.23;24.03;;;19.40;99.90;;;;;;6120226;23;20473;-70
2022/08/28 03:29:08;;;;;;;26.73;24.43;;;19.50;99.90;;;;;;6126680;23;20462;-71
2022/08/28 03:31:37;;;;;;;26.17;23.97;;;19.50;99.90;;;;;;6141262;23;20443;-71
2022/08/28 03:34:05;;;;;;;26.30;23.93;;;19.40;99.90;;;;;;6122759;23;20546;-70
2022/08/28 03:36:33;;;;;;;24.47;22.27;;;19.40;99.90;;;;;;6124227;23;20439;-71
2022/08/28 03:39:02;;;;;;;28.30;25.70;;;19.40;99.90;;;;;;6125264;23;20460;-70
2022/08/28 03:41:31;;;;;;;26.17;23.97;;;19.40;99.90;;;;;;6147868;23;21037;-70
2022/08/28 03:43:59;;;;;;;24.43;22.23;;;19.40;99.90;;;;;;6125139;23;20442;-70
2022/08/28 03:46:28;;;;;;;24.70;22.50;;;19.40;99.90;;;;;;6129118;23;20476;-70
2022/08/28 03:48:55;;;;;;;25.17;23.07;;;19.40;99.90;;;;;;6119171;23;20461;-70
2022/08/28 03:51:25;;;;;;;24.03;22.10;;;19.40;99.90;;;;;;6133225;23;20437;-70
2022/08/28 03:53:52;;;;;;;25.40;23.10;;;19.40;99.90;;;;;;6136252;23;20489;-70
2022/08/28 03:56:22;;;;;;;25.07;22.73;;;19.40;99.90;;;;;;6133651;23;20440;-70
2022/08/28 03:58:53;;;;;;;24.33;22.10;;;19.40;99.90;;;;;;6123896;23;20464;-70
2022/08/28 04:01:20;;;;;;;24.80;22.60;;;19.50;99.90;;;;;;6135897;23;20465;-70
2022/08/28 04:03:47;;;;;;;24.63;22.43;;;19.50;99.90;;;;;;6127431;23;20531;-70
2022/08/28 04:06:15;;;;;;;23.50;21.60;;;19.50;99.90;;;;;;6133880;23;20495;-70
2022/08/28 04:08:42;;;;;;;25.43;23.07;;;19.40;99.90;;;;;;6129790;23;20581;-70
2022/08/28 04:11:09;;;;;;;23.90;21.83;;;19.40;99.90;;;;;;6140479;23;20437;-70
2022/08/28 04:13:36;;;;;;;25.63;23.17;;;19.40;99.90;;;;;;6137134;23;20774;-70
2022/08/28 04:16:09;;;;;;;24.57;22.20;;;19.40;99.90;;;;;;6146422;23;20475;-70
2022/08/28 04:18:36;;;;;;;22.40;20.60;;;19.40;99.90;;;;;;6127173;23;20534;-70
2022/08/28 04:21:06;;;;;;;23.63;21.63;;;19.40;99.90;;;;;;6120786;23;20547;-70
2022/08/28 04:23:34;;;;;;;22.53;20.57;;;19.40;99.90;;;;;;6133218;23;20447;-70
2022/08/28 04:26:00;;;;;;;25.07;22.70;;;19.40;99.90;;;;;;6138764;23;20486;-70
2022/08/28 04:28:28;;;;;;;20.60;18.90;;;19.60;99.90;;;;;;6128437;23;20467;-70
2022/08/28 04:30:55;;;;;;;23.03;20.87;;;19.40;99.90;;;;;;6147783;23;20464;-70
2022/08/28 04:33:25;;;;;;;23.43;21.43;;;19.40;99.90;;;;;;6125600;23;20519;-70
2022/08/28 04:35:53;;;;;;;23.20;21.30;;;19.40;99.90;;;;;;6131879;23;20447;-70
2022/08/28 04:38:20;;;;;;;22.10;20.27;;;19.40;99.90;;;;;;6144643;23;20975;-70
2022/08/28 04:40:47;;;;;;;21.13;19.33;;;19.40;99.90;;;;;;6140601;23;21002;-70
2022/08/28 04:43:15;;;;;;;21.47;19.57;;;19.40;99.90;;;;;;6143783;23;20447;-70
2022/08/28 04:45:43;;;;;;;19.20;17.60;;;19.40;99.90;;;;;;6140804;23;20948;-70
2022/08/28 04:48:11;;;;;;;21.20;19.30;;;19.40;99.90;;;;;;6136920;23;20452;-70
2022/08/28 04:50:42;;;;;;;20.63;18.83;;;19.40;99.90;;;;;;6140361;23;20452;-70
2022/08/28 04:53:10;;;;;;;22.10;20.20;;;19.40;99.90;;;;;;6130346;23;20465;-70
2022/08/28 04:55:40;;;;;;;19.60;17.83;;;19.40;99.90;;;;;;6141949;23;20528;-69
2022/08/28 04:58:08;;;;;;;21.90;19.93;;;19.40;99.90;;;;;;6148403;23;20499;-70
2022/08/28 05:00:37;;;;;;;21.00;19.20;;;19.40;99.90;;;;;;6135617;23;20469;-68
2022/08/28 05:03:04;;;;;;;19.13;17.53;;;19.40;99.90;;;;;;6130964;23;20451;-69
2022/08/28 05:05:31;;;;;;;18.90;17.30;;;19.40;99.90;;;;;;6137498;23;20521;-68
2022/08/28 05:07:59;;;;;;;20.00;18.40;;;19.40;99.90;;;;;;6138208;23;20493;-68
2022/08/28 05:10:27;;;;;;;19.73;18.10;;;19.50;99.90;;;;;;6132763;23;20866;-69
2022/08/28 05:12:54;;;;;;;20.93;19.03;;;19.40;99.90;;;;;;6145786;23;20449;-68
2022/08/28 05:15:21;;;;;;;19.93;18.33;;;19.50;99.90;;;;;;6149203;23;20457;-68
2022/08/28 05:17:48;;;;;;;19.33;17.73;;;19.50;99.90;;;;;;6137225;23;20480;-74
2022/08/28 05:20:16;;;;;;;21.33;19.37;;;19.50;99.90;;;;;;6149828;23;20487;-68
2022/08/28 05:22:43;;;;;;;20.27;18.47;;;19.50;99.90;;;;;;6135288;23;21018;-68
2022/08/28 05:25:12;;;;;;;21.03;19.03;;;19.50;99.90;;;;;;6148966;23;20463;-69
2022/08/28 05:27:40;;;;;;;19.40;17.70;;;19.50;99.90;;;;;;6143514;23;20465;-68
2022/08/28 05:30:09;;;;;;;21.20;19.10;;;19.60;99.90;;;;;;6145046;23;20934;-68
2022/08/28 05:32:36;;;;;;;20.53;18.67;;;19.60;99.90;;;;;;6149737;23;20435;-68
2022/08/28 05:35:04;;;;;;;19.17;17.30;;;19.70;99.90;;;;;;6138244;23;20449;-69
2022/08/28 05:37:31;;;;;;;19.00;17.40;;;19.70;99.90;;;;;;6145825;23;20457;-68
2022/08/28 05:39:58;;;;;;;19.23;17.47;;;19.70;99.90;;;;;;6145075;23;20459;-68
2022/08/28 05:42:27;;;;;;;19.57;17.70;;;19.50;99.90;;;;;;6138068;23;20815;-68
2022/08/28 05:44:54;;;;;;;19.10;17.50;;;19.80;99.90;;;;;;6144532;23;20452;-68
2022/08/28 05:47:21;;;;;;;17.30;15.80;;;19.80;99.90;;;;;;6147279;23;20553;-68
2022/08/28 05:49:48;;;;;;;18.90;17.40;;;19.90;99.90;;;;;;6148544;23;20486;-69
2022/08/28 05:52:15;;;;;;;20.27;18.57;;;19.90;99.90;;;;;;6144293;23;20442;-69
2022/08/28 05:54:43;;;;;;;15.23;13.93;;;19.90;99.90;;;;;;6142993;23;20971;-71
2022/08/28 05:57:10;;;;;;;18.33;16.93;;;19.90;99.90;;;;;;6146740;23;20462;-70
2022/08/28 05:59:39;;;;;;;17.17;15.77;;;20.00;99.90;;;;;;6149775;23;20459;-71
2022/08/28 06:02:06;;;;;;;15.47;14.20;;;20.00;99.90;;;;;;6147300;23;20465;-71
2022/08/28 06:04:35;;;;;;;17.93;16.40;;;20.10;99.90;;;;;;6126492;23;20509;-71
2022/08/28 06:07:01;;;;;;;16.93;15.53;;;20.20;99.90;;;;;;6141463;23;20453;-71
2022/08/28 06:09:29;;;;;;;16.50;14.83;;;20.20;99.90;;;;;;6146558;23;20937;-73
2022/08/28 06:11:58;;;;;;;16.40;14.90;;;20.30;99.90;;;;;;6124402;23;20527;-71
2022/08/28 06:14:26;;;;;;;16.10;14.80;;;20.40;99.90;;;;;;6133776;23;20974;-70
2022/08/28 06:16:56;;;;;;;15.63;14.40;;;20.40;99.90;;;;;;6128402;23;20466;-70
2022/08/28 06:19:26;;;;;;;15.40;14.20;;;20.50;99.90;;;;;;6133716;23;20526;-73
2022/08/28 06:21:56;;;;;;;15.33;14.13;;;20.50;99.90;;;;;;6133811;23;20857;-70
2022/08/28 06:24:24;;;;;;;16.63;15.13;;;20.50;99.90;;;;;;6134498;23;20804;-70
2022/08/28 06:26:51;;;;;;;16.27;14.70;;;20.60;99.90;;;;;;6128372;23;20488;-70
2022/08/28 06:29:20;;;;;;;15.90;14.40;;;20.60;99.90;;;;;;6146867;23;20934;-70
2022/08/28 06:31:52;;;;;;;15.60;14.30;;;20.70;99.90;;;;;;6141718;23;20433;-71
2022/08/28 06:34:21;;;;;;;18.00;16.50;;;20.70;99.90;;;;;;6147686;23;20430;-70
2022/08/28 06:36:48;;;;;;;13.67;12.60;;;20.70;99.90;;;;;;6149590;23;20877;-70
2022/08/28 06:39:15;;;;;;;16.43;14.93;;;20.70;99.90;;;;;;6141140;23;20950;-70
2022/08/28 06:41:43;;;;;;;16.57;15.17;;;20.80;99.90;;;;;;6144815;23;20467;-70
2022/08/28 06:44:11;;;;;;;17.43;16.03;;;20.80;99.90;;;;;;6128007;23;20853;-71
2022/08/28 06:46:38;;;;;;;17.53;16.13;;;20.90;99.90;;;;;;6135650;23;20452;-71
2022/08/28 06:49:07;;;;;;;18.50;16.77;;;20.80;99.90;;;;;;6149823;23;20745;-71
2022/08/28 06:51:36;;;;;;;17.17;15.80;;;20.70;99.90;;;;;;6141644;23;20428;-70
2022/08/28 06:54:04;;;;;;;14.30;13.20;;;20.70;99.90;;;;;;6147223;23;20476;-72
2022/08/28 06:56:31;;;;;;;14.27;13.07;;;20.70;99.90;;;;;;6146595;23;20539;-72
2022/08/28 06:58:59;;;;;;;16.87;15.37;;;20.70;99.90;;;;;;6145820;23;20434;-70
2022/08/28 07:01:29;;;;;;;16.23;14.83;;;20.80;99.90;;;;;;6144096;23;20520;-71
2022/08/28 07:03:59;;;;;;;14.50;13.50;;;20.80;99.90;;;;;;6147870;23;20442;-71
2022/08/28 07:06:27;;;;;;;15.57;14.40;;;20.90;99.90;;;;;;6142733;23;20472;-70
2022/08/28 07:08:55;;;;;;;16.47;15.07;;;20.90;99.90;;;;;;6125716;23;20469;-71
2022/08/28 07:11:25;;;;;;;14.57;13.37;;;21.00;99.90;;;;;;6146215;23;20430;-71
2022/08/28 07:13:53;;;;;;;13.33;12.43;;;21.10;99.90;;;;;;6144066;23;20485;-70
2022/08/28 07:16:21;;;;;;;12.57;11.67;;;21.20;99.90;;;;;;6147330;23;20459;-70
2022/08/28 07:18:48;;;;;;;13.30;12.30;;;21.30;99.90;;;;;;6142597;23;20520;-71
2022/08/28 07:21:15;;;;;;;12.00;11.10;;;21.40;99.90;;;;;;6145645;23;20456;-72
2022/08/28 07:23:44;;;;;;;12.23;11.23;;;21.50;99.90;;;;;;6147214;23;20441;-71
2022/08/28 07:26:16;;;;;;;13.57;12.37;;;21.60;99.90;;;;;;6145344;23;20460;-73
2022/08/28 07:28:44;;;;;;;11.80;10.90;;;21.80;99.90;;;;;;6143928;23;20432;-71
2022/08/28 07:31:14;;;;;;;11.20;10.37;;;21.80;99.90;;;;;;6148204;23;20433;-72
2022/08/28 07:33:42;;;;;;;11.00;10.00;;;21.90;99.90;;;;;;6148387;23;20800;-73
2022/08/28 07:36:12;;;;;;;11.80;10.80;;;22.00;99.90;;;;;;6144869;23;20434;-70
2022/08/28 07:38:39;;;;;;;13.17;12.17;;;22.00;99.90;;;;;;6144906;23;20630;-72
2022/08/28 07:41:15;;;;;;;12.00;10.90;;;22.00;99.90;;;;;;6145616;23;21084;-70
2022/08/28 07:46:26;;;;;;;11.30;10.13;;;22.00;99.90;;;;;;6133169;23;20452;-70
2022/08/28 07:48:53;;;;;;;14.00;12.90;;;21.90;99.90;;;;;;6144557;23;20804;-70
2022/08/28 07:51:20;;;;;;;12.47;11.47;;;21.90;99.90;;;;;;6141938;23;20433;-72
2022/08/28 07:53:47;;;;;;;12.13;11.13;;;22.00;99.90;;;;;;6146707;23;20460;-70
2022/08/28 07:56:16;;;;;;;10.90;10.10;;;21.90;99.90;;;;;;6142782;23;20464;-69
2022/08/28 07:58:44;;;;;;;10.67;9.77;;;21.90;99.90;;;;;;6141158;23;20440;-69
2022/08/28 08:01:11;;;;;;;10.80;9.97;;;21.90;99.90;;;;;;6144763;23;20452;-69
2022/08/28 08:03:39;;;;;;;12.20;11.20;;;22.00;99.90;;;;;;6134045;23;20497;-70
2022/08/28 08:06:07;;;;;;;11.43;10.53;;;22.20;99.90;;;;;;6147255;23;20452;-70
2022/08/28 08:08:34;;;;;;;11.67;10.73;;;22.20;99.90;;;;;;6139664;23;20498;-70
2022/08/28 08:11:04;;;;;;;10.53;9.63;;;22.30;99.90;;;;;;6143615;23;20433;-70
2022/08/28 08:13:34;;;;;;;10.83;10.00;;;22.40;99.90;;;;;;6146221;23;20505;-70
2022/08/28 08:16:02;;;;;;;12.70;11.63;;;22.70;99.90;;;;;;6148467;23;21995;-70
2022/08/28 08:18:29;;;;;;;11.17;10.23;;;22.60;99.90;;;;;;6145978;23;20478;-70
2022/08/28 08:20:57;;;;;;;11.07;10.23;;;22.70;99.90;;;;;;6148555;23;20842;-70
2022/08/28 08:23:24;;;;;;;11.03;10.23;;;22.70;99.90;;;;;;6147929;23;20469;-69
2022/08/28 08:25:56;;;;;;;10.27;9.47;;;22.80;99.90;;;;;;6148741;23;20445;-69
2022/08/28 08:28:23;;;;;;;10.73;9.73;;;22.80;99.90;;;;;;6139759;23;20753;-69
2022/08/28 08:31:03;;;;;;;10.70;9.70;;;23.00;99.90;;;;;;6138523;23;20472;-70
2022/08/28 08:33:31;;;;;;;11.80;10.70;;;23.10;99.90;;;;;;6146772;23;20425;-70
2022/08/28 08:35:58;;;;;;;11.10;10.20;;;23.20;99.90;;;;;;6146790;23;20456;-70
2022/08/28 08:38:25;;;;;;;10.03;9.23;;;23.30;99.90;;;;;;6145817;23;20525;-71
2022/08/28 08:40:52;;;;;;;9.97;9.10;;;23.40;99.90;;;;;;6145148;23;21000;-71
2022/08/28 08:43:20;;;;;;;11.20;10.30;;;23.50;99.90;;;;;;6132623;23;20437;-70
2022/08/28 08:45:49;;;;;;;9.87;9.03;;;23.70;99.90;;;;;;6131313;23;20522;-70
2022/08/28 08:48:27;;;;;;;11.00;10.20;;;23.70;99.90;;;;;;6136478;23;20438;-70
2022/08/28 08:50:58;;;;;;;10.30;9.30;;;23.80;99.90;;;;;;6144265;23;20436;-70
2022/08/28 08:53:33;;;;;;;11.40;10.50;;;23.90;99.90;;;;;;6137213;23;20938;-69
2022/08/28 08:56:04;;;;;;;11.00;9.93;;;24.00;99.90;;;;;;6135991;23;20532;-70
2022/08/28 08:58:35;;;;;;;11.57;10.57;;;24.10;99.90;;;;;;6118132;23;20462;-70
2022/08/28 09:01:09;;;;;;;11.97;10.87;;;24.20;99.90;;;;;;6128130;23;20764;-70
2022/08/28 09:03:49;;;;;;;10.80;9.57;;;24.30;99.90;;;;;;6127296;23;20447;-70
2022/08/28 09:06:24;;;;;;;9.93;9.13;;;24.30;99.90;;;;;;6135086;23;20456;-70
2022/08/28 09:08:57;;;;;;;9.60;8.90;;;24.30;99.90;;;;;;6131035;23;20468;-70
2022/08/28 09:11:37;;;;;;;12.10;11.20;;;24.40;99.90;;;;;;6138428;23;20449;-69
2022/08/28 09:14:14;;;;;;;10.43;9.67;;;24.50;99.90;;;;;;6126671;23;20463;-69
2022/08/28 09:16:44;;;;;;;12.10;11.07;;;24.50;99.90;;;;;;6132918;23;20577;-70
2022/08/28 09:19:21;;;;;;;10.67;9.73;;;24.40;99.90;;;;;;6128375;23;20522;-70
2022/08/28 09:21:50;;;;;;;11.23;10.30;;;24.30;99.90;;;;;;6125388;23;20823;-71
2022/08/28 09:24:22;;;;;;;12.00;11.03;;;24.40;99.90;;;;;;6140640;23;20435;-70
2022/08/28 09:26:55;;;;;;;9.70;9.00;;;24.50;99.90;;;;;;6140659;23;20823;-72
2022/08/28 09:29:31;;;;;;;9.67;8.83;;;24.60;99.90;;;;;;6132319;23;20486;-74
2022/08/28 09:31:58;;;;;;;9.03;8.23;;;24.70;99.90;;;;;;6136331;23;20462;-72
2022/08/28 09:34:31;;;;;;;9.53;8.73;;;24.90;99.90;;;;;;6127492;23;20459;-71
2022/08/28 09:37:00;;;;;;;8.83;8.00;;;25.20;99.90;;;;;;6128338;23;20469;-70
2022/08/28 09:39:29;;;;;;;11.07;10.00;;;25.40;99.90;;;;;;6125061;23;20509;-70
2022/08/28 09:44:50;;;;;;;9.30;8.50;;;25.20;99.90;;;;;;6140320;23;20440;-75
2022/08/28 09:47:41;;;;;;;8.33;7.53;;;25.30;99.90;;;;;;6128389;23;20459;-72
2022/08/28 09:50:32;;;;;;;8.80;8.20;;;25.40;99.90;;;;;;6136394;23;20514;-70
2022/08/28 09:53:15;;;;;;;9.47;8.53;;;25.50;99.90;;;;;;6131966;23;20484;-70
2022/08/28 09:55:54;;;;;;;8.73;8.03;;;25.60;99.90;;;;;;6125873;23;20858;-70
2022/08/28 09:58:23;;;;;;;8.67;7.97;;;25.70;99.90;;;;;;6132282;23;20951;-70
2022/08/28 10:00:54;;;;;;;7.87;7.17;;;26.20;99.90;;;;;;6133344;23;20436;-70
2022/08/28 10:03:27;;;;;;;10.50;9.73;;;26.60;99.90;;;;;;6140343;23;20456;-70
2022/08/28 10:06:04;;;;;;;10.30;9.60;;;26.70;99.90;;;;;;6149768;23;20631;-70
2022/08/28 10:08:58;;;;;;;6.77;6.17;;;26.70;99.90;;;;;;6133918;23;20444;-71
2022/08/28 10:11:32;;;;;;;9.70;9.00;;;26.90;99.90;;;;;;6128859;23;20873;-70
2022/08/28 10:14:09;;;;;;;9.93;9.03;;;27.40;99.90;;;;;;6130431;23;20440;-70
2022/08/28 10:16:46;;;;;;;8.90;8.07;;;27.80;99.90;;;;;;6131736;23;20543;-71
2022/08/28 10:19:20;;;;;;;7.73;7.13;;;28.40;99.90;;;;;;6139068;23;20444;-70
2022/08/28 10:21:57;;;;;;;8.33;7.63;;;28.90;99.90;;;;;;6144715;23;20487;-70
2022/08/28 10:24:38;;;;;;;8.17;7.57;;;29.00;99.90;;;;;;6127320;23;20936;-70
2022/08/28 10:27:14;;;;;;;7.87;7.37;;;28.80;99.90;;;;;;6139803;23;20457;-70
2022/08/28 10:29:51;;;;;;;8.87;8.17;;;28.30;99.90;;;;;;6140730;23;20837;-70
2022/08/28 10:32:35;;;;;;;8.33;7.63;;;27.90;99.90;;;;;;6139875;23;20864;-70
2022/08/28 10:35:10;;;;;;;7.90;7.30;;;27.40;99.90;;;;;;6137614;23;20451;-70
2022/08/28 10:37:50;;;;;;;8.80;8.13;;;26.90;99.90;;;;;;6135019;23;20532;-70
2022/08/28 10:40:26;;;;;;;8.67;7.97;;;26.70;99.90;;;;;;6134260;23;21082;-67
2022/08/28 10:43:00;;;;;;;10.73;9.80;;;26.50;99.90;;;;;;6136463;23;20501;-68
2022/08/28 10:45:29;;;;;;;9.43;8.63;;;26.10;99.90;;;;;;6135238;23;22448;-69
2022/08/28 10:48:01;;;;;;;7.70;7.00;;;25.80;99.90;;;;;;6148039;23;20939;-67
2022/08/28 10:50:33;;;;;;;8.50;7.73;;;25.60;99.90;;;;;;6132414;23;20438;-69
2022/08/28 10:53:08;;;;;;;10.63;9.73;;;25.90;99.90;;;;;;6135272;23;20448;-68
2022/08/28 10:55:39;;;;;;;6.70;6.20;;;26.30;99.90;;;;;;6134138;23;20453;-69
2022/08/28 10:58:08;;;;;;;7.83;7.30;;;26.70;99.90;;;;;;6129531;23;20433;-69
2022/08/28 11:00:36;;;;;;;8.10;7.40;;;27.10;99.90;;;;;;6146136;23;20440;-69
2022/08/28 11:03:08;;;;;;;8.50;7.70;;;27.20;99.90;;;;;;6148254;23;20468;-69
2022/08/28 11:05:40;;;;;;;7.80;7.10;;;27.20;99.90;;;;;;6137362;23;21001;-69
2022/08/28 11:08:24;;;;;;;7.83;7.23;;;27.20;99.90;;;;;;6146101;23;20555;-68
2022/08/28 11:10:54;;;;;;;6.97;6.47;;;27.20;99.90;;;;;;6151733;23;20468;-69
2022/08/28 11:13:56;;;;;;;7.80;7.10;;;27.20;99.90;;;;;;6138734;23;20437;-68
2022/08/28 11:16:35;;;;;;;8.80;8.00;;;27.30;99.90;;;;;;6050057;23;20494;-70
2022/08/28 11:19:31;;;;;;;8.97;8.20;;;27.40;99.90;;;;;;6058160;23;20428;-68
2022/08/28 11:22:06;;;;;;;7.67;6.97;;;27.70;99.90;;;;;;6100576;23;20462;-69
2022/08/28 11:24:44;;;;;;;6.80;6.30;;;28.20;99.90;;;;;;6131884;23;20432;-68
2022/08/28 11:27:22;;;;;;;6.67;6.03;;;28.80;99.90;;;;;;6144112;23;20478;-69
2022/08/28 11:30:30;;;;;;;7.23;6.70;;;29.40;99.90;;;;;;6141955;23;21006;-69
2022/08/28 11:33:09;;;;;;;7.10;6.50;;;29.90;99.90;;;;;;6140985;23;20920;-69
2022/08/28 11:35:43;;;;;;;8.60;7.30;;;30.20;99.90;;;;;;6138576;23;20464;-69
2022/08/28 11:38:11;;;;;;;7.50;6.80;;;30.00;99.90;;;;;;6135281;23;20464;-70
2022/08/28 11:40:55;;;;;;;7.17;6.67;;;29.70;99.90;;;;;;6147674;23;20437;-69
2022/08/28 11:43:35;;;;;;;6.80;6.30;;;29.40;99.90;;;;;;6136409;23;20487;-69
2022/08/28 11:46:24;;;;;;;7.23;6.63;;;28.90;99.90;;;;;;6148007;23;20444;-69
2022/08/28 11:48:54;;;;;;;6.83;6.23;;;28.60;99.90;;;;;;6144481;23;20468;-69
2022/08/28 11:51:50;;;;;;;7.67;7.03;;;28.60;99.90;;;;;;6148521;23;20497;-69
2022/08/28 11:54:30;;;;;;;6.40;5.83;;;28.70;99.90;;;;;;6129287;23;20935;-69
2022/08/28 11:57:07;;;;;;;7.60;7.00;;;28.90;99.90;;;;;;6140273;23;20452;-69
2022/08/28 11:59:55;;;;;;;5.77;5.37;;;29.30;99.90;;;;;;6134137;23;21154;-69
2022/08/28 12:02:56;;;;;;;5.87;5.47;;;29.80;99.90;;;;;;6131884;23;20453;-69
2022/08/28 12:05:52;;;;;;;7.00;6.37;;;30.10;99.90;;;;;;6125976;23;20459;-69
2022/08/28 12:09:08;;;;;;;8.50;7.70;;;30.30;99.90;;;;;;6136401;23;20448;-69
2022/08/28 12:11:50;;;;;;;9.17;8.47;;;30.30;99.90;;;;;;6143119;23;20432;-69
2022/08/28 12:14:59;;;;;;;6.43;5.93;;;30.10;99.90;;;;;;6137893;23;20505;-69
2022/08/28 12:17:48;;;;;;;6.83;6.33;;;30.10;99.90;;;;;;6050073;23;20435;-70
2022/08/28 12:20:45;;;;;;;6.43;5.93;;;29.70;99.90;;;;;;6142964;23;21006;-68
2022/08/28 12:23:33;;;;;;;7.50;6.03;;;29.50;99.90;;;;;;6138061;23;20484;-69
2022/08/28 12:26:03;;;;;;;5.70;5.30;;;29.70;99.90;;;;;;6127629;23;20499;-69
2022/08/28 12:28:33;;;;;;;6.67;6.03;;;29.90;99.90;;;;;;6141903;23;20541;-69
2022/08/28 12:32:10;;;;;;;6.43;5.83;;;30.30;99.90;;;;;;6130841;23;20550;-69
2022/08/28 12:34:23;;;;;;;5.97;4.90;;;30.30;99.80;;;;;;6138785;23;20515;-69
2022/08/28 12:36:57;;;;;;;5.43;5.03;;;30.20;99.90;;;;;;6142532;23;20454;-68
2022/08/28 12:39:24;;;;;;;6.60;6.00;;;30.00;99.80;;;;;;6143152;23;20520;-69
2022/08/28 12:41:51;;;;;;;6.20;5.67;;;29.60;99.50;;;;;;6125939;23;20441;-69
2022/08/28 12:44:25;;;;;;;6.10;5.63;;;29.30;99.90;;;;;;6138185;23;20471;-69
2022/08/28 12:46:53;;;;;;;5.30;4.90;;;29.30;99.90;;;;;;6125051;23;20469;-69
2022/08/28 12:49:34;;;;;;;6.43;5.60;;;29.40;99.60;;;;;;6135695;23;20441;-69
2022/08/28 12:52:11;;;;;;;5.07;4.73;;;29.50;99.40;;;;;;6138011;23;20511;-69
2022/08/28 12:54:38;;;;;;;5.73;5.30;;;29.80;99.70;;;;;;6131774;23;20850;-69
2022/08/28 12:57:08;;;;;;;5.30;4.90;;;30.00;99.20;;;;;;6139226;23;20456;-70
2022/08/28 12:59:37;;;;;;;5.20;4.90;;;30.00;99.00;;;;;;6127000;23;20464;-69